Time;durP1;ratioP1;P1;durP2;ratioP2;P2;SDS_P1;SDS_P2;PMS_P1;PMS_P2;Temp;Humidity;BMP_temperature;BMP_pressure;BME280_temperature;BME280_humidity;BME280_pressure;Samples;Min_cycle;Max_cycle;Signal;HPM_P1;HPM_P2
2023/01/17 00:00:55;;;;;;;0.57;0.30;;;;;;;5.03;100.00;96937.06;5202556;28;20032;-75
2023/01/17 00:03:26;;;;;;;1.27;0.60;;;;;;;5.12;100.00;96943.34;5210708;28;20053;-75
2023/01/17 00:11:36;;;;;;;0.45;0.30;;;;;;;5.06;100.00;96943.75;5182714;28;20037;-74
2023/01/17 00:14:06;;;;;;;0.70;0.28;;;;;;;4.96;100.00;96953.94;5205936;28;20075;-76
2023/01/17 00:16:36;;;;;;;0.70;0.30;;;;;;;4.95;100.00;96954.06;5202588;28;20033;-75
2023/01/17 01:35:53;;;;;;;1.48;1.00;;;;;;;4.84;100.00;97006.53;5204536;28;20040;-76
2023/01/17 01:38:24;;;;;;;2.03;0.93;;;;;;;4.90;100.00;97011.28;5187974;28;20436;-76
2023/01/17 01:40:55;;;;;;;1.88;1.00;;;;;;;4.92;100.00;96999.06;5212342;28;20530;-76
2023/01/17 01:43:45;;;;;;;3.83;1.40;;;;;;;4.90;100.00;97007.84;5191428;28;20033;-76
2023/01/17 01:46:24;;;;;;;2.15;1.13;;;;;;;4.93;100.00;97005.91;5201518;28;20037;-76
2023/01/17 01:48:58;;;;;;;1.40;1.00;;;;;;;5.05;100.00;97014.53;5206487;28;20036;-76
2023/01/17 01:51:37;;;;;;;2.38;0.90;;;;;;;5.03;100.00;97012.09;5209796;28;20024;-76
2023/01/17 01:54:17;;;;;;;1.52;0.90;;;;;;;5.16;100.00;97012.03;5190230;28;20045;-76
2023/01/17 01:56:51;;;;;;;2.20;1.10;;;;;;;5.01;100.00;97019.09;5203894;28;20017;-76
2023/01/17 01:59:22;;;;;;;3.03;1.20;;;;;;;4.95;100.00;97019.53;5211763;28;20036;-76
2023/01/17 02:01:55;;;;;;;2.70;0.90;;;;;;;4.93;100.00;97026.59;5198929;28;20025;-76
2023/01/17 02:04:27;;;;;;;2.83;0.82;;;;;;;5.06;100.00;97027.38;5203580;28;20315;-76
2023/01/17 02:07:06;;;;;;;2.30;1.17;;;;;;;4.97;100.00;97035.78;5205321;28;20022;-76
2023/01/17 02:09:36;;;;;;;2.47;1.20;;;;;;;5.04;100.00;97029.25;5206502;28;20021;-76
2023/01/17 02:12:08;;;;;;;4.55;1.60;;;;;;;5.01;100.00;97042.38;5204851;28;20029;-77
2023/01/17 02:14:39;;;;;;;4.07;1.92;;;;;;;5.01;100.00;97047.56;5206835;28;20116;-74
2023/01/17 02:17:15;;;;;;;6.20;2.58;;;;;;;5.10;100.00;97041.75;5203800;28;20765;-76
2023/01/17 02:19:54;;;;;;;7.68;3.10;;;;;;;5.03;100.00;97048.31;5219809;28;20556;-76
2023/01/17 02:22:58;;;;;;;6.78;2.90;;;;;;;5.06;100.00;97055.84;5206061;28;20475;-76
2023/01/17 02:25:47;;;;;;;6.68;2.97;;;;;;;5.00;100.00;97045.91;5207786;28;20036;-76
2023/01/17 02:28:35;;;;;;;7.70;3.15;;;;;;;5.05;100.00;97051.59;5216095;28;20470;-76
2023/01/17 02:31:16;;;;;;;5.13;2.78;;;;;;;5.05;100.00;97055.94;5212689;28;20080;-76
2023/01/17 02:33:58;;;;;;;3.95;2.40;;;;;;;5.09;100.00;97044.44;5206631;28;20037;-75
2023/01/17 02:36:36;;;;;;;4.72;3.00;;;;;;;4.95;100.00;97063.50;5192013;28;20021;-76
2023/01/17 02:39:16;;;;;;;7.93;3.67;;;;;;;4.97;100.00;97064.22;5214369;28;20026;-76
2023/01/17 02:42:01;;;;;;;3.53;2.25;;;;;;;5.01;100.00;97068.25;5194215;28;20025;-77
2023/01/17 02:44:39;;;;;;;3.83;2.20;;;;;;;4.90;100.00;97083.72;5206179;28;20120;-76
2023/01/17 02:47:23;;;;;;;4.55;2.20;;;;;;;4.92;100.00;97087.00;5206196;28;20029;-73
2023/01/17 02:49:58;;;;;;;2.83;1.98;;;;;;;5.04;100.00;97080.16;5231542;22;20128;-71
2023/01/17 02:52:36;;;;;;;4.20;2.50;;;;;;;5.01;100.00;97083.78;5207515;28;20140;-71
2023/01/17 02:55:36;;;;;;;4.38;2.60;;;;;;;4.83;100.00;97097.97;5210444;28;20034;-71
2023/01/17 02:58:25;;;;;;;3.47;2.15;;;;;;;4.85;100.00;97085.78;5201116;28;20123;-71
2023/01/17 03:01:16;;;;;;;4.25;2.58;;;;;;;4.85;100.00;97093.53;5206535;28;20217;-71
2023/01/17 03:04:02;;;;;;;5.75;2.97;;;;;;;4.76;100.00;97096.75;5207258;28;20060;-72
2023/01/17 03:06:38;;;;;;;6.00;3.00;;;;;;;4.74;100.00;97108.97;5209920;28;20490;-71
2023/01/17 03:09:09;;;;;;;4.57;2.45;;;;;;;4.83;100.00;97113.50;5197594;28;20043;-71
2023/01/17 03:11:40;;;;;;;7.30;3.88;;;;;;;4.91;100.00;97116.41;5204809;28;20030;-72
2023/01/17 03:14:11;;;;;;;3.47;2.33;;;;;;;4.75;100.00;97126.13;5205498;28;20435;-72
2023/01/17 03:16:41;;;;;;;6.35;2.97;;;;;;;4.74;100.00;97132.22;5206745;28;20044;-72
2023/01/17 03:19:13;;;;;;;5.15;2.80;;;;;;;4.67;100.00;97133.56;5211491;28;20142;-72
2023/01/17 03:21:43;;;;;;;4.38;2.33;;;;;;;4.52;100.00;97144.09;5213667;28;20471;-72
2023/01/17 03:24:14;;;;;;;4.35;2.33;;;;;;;4.60;100.00;97142.66;5214615;28;20032;-71
2023/01/17 03:26:46;;;;;;;6.68;3.35;;;;;;;4.64;100.00;97143.28;5214615;28;20031;-71
2023/01/17 03:29:17;;;;;;;7.45;3.35;;;;;;;4.75;100.00;97156.31;5193814;28;20029;-72
2023/01/17 03:31:47;;;;;;;4.78;2.53;;;;;;;4.66;100.00;97147.41;5214691;28;20032;-72
2023/01/17 03:34:17;;;;;;;5.80;2.50;;;;;;;4.78;100.00;97154.34;5211581;28;20096;-73
2023/01/17 03:36:48;;;;;;;5.45;2.63;;;;;;;4.63;100.00;97160.53;5214771;28;20090;-71
2023/01/17 03:39:18;;;;;;;3.80;2.15;;;;;;;4.57;100.00;97173.91;5210819;28;20041;-72
2023/01/17 03:41:49;;;;;;;4.40;2.25;;;;;;;4.73;100.00;97168.53;5206812;28;20529;-72
2023/01/17 03:44:19;;;;;;;3.03;1.67;;;;;;;4.61;100.00;97154.66;5206925;28;20087;-71
2023/01/17 03:46:49;;;;;;;4.65;2.10;;;;;;;4.71;100.00;97160.03;5205866;28;20538;-72
2023/01/17 03:49:20;;;;;;;4.63;2.20;;;;;;;4.73;100.00;97177.13;5210073;28;20029;-71
2023/01/17 03:51:50;;;;;;;3.63;1.67;;;;;;;4.71;100.00;97185.91;5213880;28;20052;-72
2023/01/17 03:54:20;;;;;;;2.63;1.58;;;;;;;4.78;100.00;97175.03;5211323;28;20033;-72
2023/01/17 03:56:50;;;;;;;3.03;1.70;;;;;;;4.79;100.00;97181.88;5213378;28;20032;-71
2023/01/17 03:59:21;;;;;;;4.28;2.10;;;;;;;4.80;100.00;97180.94;5210515;28;20107;-71
2023/01/17 04:01:51;;;;;;;3.10;1.83;;;;;;;4.67;100.00;97189.63;5209735;28;20438;-71
2023/01/17 04:04:21;;;;;;;3.42;1.88;;;;;;;4.74;100.00;97189.13;5212535;28;20054;-72
2023/01/17 04:06:52;;;;;;;3.42;1.85;;;;;;;4.77;100.00;97191.50;5206554;28;20020;-71
2023/01/17 04:09:22;;;;;;;3.00;1.70;;;;;;;4.75;100.00;97198.53;5204710;28;20143;-71
2023/01/17 04:11:52;;;;;;;4.35;1.80;;;;;;;4.80;100.00;97196.44;5214994;28;20044;-72
2023/01/17 04:14:22;;;;;;;5.40;2.03;;;;;;;4.84;100.00;97203.06;5210694;28;20435;-71
2023/01/17 04:16:53;;;;;;;3.30;1.58;;;;;;;4.82;100.00;97194.59;5204718;28;20386;-71
2023/01/17 04:19:24;;;;;;;3.95;1.50;;;;;;;4.78;100.00;97198.31;5212275;28;20024;-72
2023/01/17 04:21:54;;;;;;;2.40;1.40;;;;;;;4.77;100.00;97190.69;5191590;28;20048;-72
2023/01/17 04:24:24;;;;;;;1.90;1.27;;;;;;;4.74;100.00;97204.63;5205408;28;20033;-72
2023/01/17 04:26:55;;;;;;;2.50;1.42;;;;;;;4.72;100.00;97198.72;5206409;28;20029;-72
2023/01/17 04:29:25;;;;;;;3.17;1.35;;;;;;;4.77;100.00;97198.44;5207511;28;20036;-72
2023/01/17 04:31:55;;;;;;;1.92;1.25;;;;;;;4.80;100.00;97196.44;5198119;28;20582;-72
2023/01/17 04:34:25;;;;;;;1.70;1.30;;;;;;;4.66;100.00;97199.13;5191449;28;20120;-72
2023/01/17 04:36:56;;;;;;;2.83;1.50;;;;;;;4.79;100.00;97199.16;5204790;28;20025;-71
2023/01/17 04:39:26;;;;;;;3.53;1.60;;;;;;;4.69;100.00;97203.28;5206091;28;20690;-70
2023/01/17 04:41:56;;;;;;;3.45;1.70;;;;;;;4.75;100.00;97208.03;5210230;28;20021;-72
2023/01/17 04:44:27;;;;;;;3.03;1.70;;;;;;;4.84;100.00;97207.44;5206024;28;20040;-72
2023/01/17 04:46:57;;;;;;;4.20;1.73;;;;;;;4.72;100.00;97213.41;5206193;28;20111;-73
2023/01/17 04:49:27;;;;;;;2.85;1.67;;;;;;;4.66;100.00;97222.38;5206966;28;20044;-72
2023/01/17 04:51:58;;;;;;;2.88;1.70;;;;;;;4.83;100.00;97211.75;5207675;28;20089;-73
2023/01/17 04:54:28;;;;;;;4.35;2.08;;;;;;;4.82;100.00;97215.28;5209789;28;20041;-72
2023/01/17 04:56:58;;;;;;;3.97;2.05;;;;;;;4.79;100.00;97225.03;5209618;28;20132;-72
2023/01/17 04:59:29;;;;;;;2.60;1.70;;;;;;;4.75;100.00;97224.38;5210689;28;20299;-72
2023/01/17 05:01:59;;;;;;;2.55;1.67;;;;;;;4.78;100.00;97221.59;5212243;28;20031;-72
2023/01/17 05:04:29;;;;;;;3.58;1.92;;;;;;;4.71;100.00;97224.69;5205396;28;20033;-71
2023/01/17 05:07:00;;;;;;;5.18;1.73;;;;;;;4.69;100.00;97232.56;5209287;28;20456;-72
2023/01/17 05:09:30;;;;;;;3.20;1.70;;;;;;;4.75;100.00;97233.88;5211130;28;20036;-73
2023/01/17 05:12:00;;;;;;;2.38;1.67;;;;;;;4.70;100.00;97241.13;5206108;28;20021;-72
2023/01/17 05:14:33;;;;;;;2.45;1.75;;;;;;;4.68;100.00;97233.50;5210445;28;20029;-72
2023/01/17 05:17:03;;;;;;;2.97;1.60;;;;;;;4.74;100.00;97250.34;5202006;28;20056;-72
2023/01/17 05:19:33;;;;;;;2.88;1.77;;;;;;;4.67;100.00;97243.91;5210467;28;20068;-72
2023/01/17 05:22:13;;;;;;;2.47;1.90;;;;;;;4.70;100.00;97251.47;5211146;28;20028;-72
2023/01/17 05:24:45;;;;;;;4.10;2.10;;;;;;;4.73;100.00;97246.94;5209557;28;20101;-72
2023/01/17 05:27:15;;;;;;;2.80;1.63;;;;;;;4.65;100.00;97253.53;5208514;28;20104;-72
2023/01/17 05:29:45;;;;;;;4.38;2.00;;;;;;;4.70;100.00;97248.88;5211426;28;20112;-72
2023/01/17 05:32:16;;;;;;;4.07;1.90;;;;;;;4.66;100.00;97265.53;5212867;28;20110;-72
2023/01/17 05:34:46;;;;;;;3.17;1.70;;;;;;;4.70;100.00;97266.97;5209158;28;20518;-70
2023/01/17 05:37:16;;;;;;;3.00;1.60;;;;;;;4.65;100.00;97269.84;5213781;28;20775;-72
2023/01/17 05:39:47;;;;;;;2.42;1.30;;;;;;;4.67;100.00;97280.94;5209060;28;20028;-72
2023/01/17 05:42:17;;;;;;;1.98;1.30;;;;;;;4.60;100.00;97282.25;5192178;28;20075;-72
2023/01/17 05:44:47;;;;;;;2.83;1.10;;;;;;;4.64;100.00;97288.88;5202353;28;20584;-73
2023/01/17 05:47:17;;;;;;;2.15;1.27;;;;;;;4.62;100.00;97284.75;5206064;28;20108;-72
2023/01/17 05:49:48;;;;;;;1.75;1.00;;;;;;;4.66;100.00;97296.56;5208152;28;20542;-72
2023/01/17 05:52:18;;;;;;;2.15;1.30;;;;;;;4.67;100.00;97299.03;5213078;28;20119;-72
2023/01/17 05:54:49;;;;;;;3.72;1.60;;;;;;;4.79;100.00;97303.41;5190743;28;20048;-71
2023/01/17 05:57:19;;;;;;;2.90;1.35;;;;;;;4.69;100.00;97315.31;5213134;28;20037;-72
2023/01/17 05:59:49;;;;;;;3.05;1.50;;;;;;;4.67;100.00;97314.53;5187337;28;20394;-73
2023/01/17 06:02:20;;;;;;;2.80;1.30;;;;;;;4.64;100.00;97330.25;5202755;28;20048;-73
2023/01/17 06:04:50;;;;;;;2.63;1.58;;;;;;;4.47;100.00;97343.41;5205813;28;20482;-72
2023/01/17 06:07:20;;;;;;;1.58;1.08;;;;;;;4.59;100.00;97347.81;5186854;28;20154;-72
2023/01/17 06:09:51;;;;;;;1.95;1.13;;;;;;;4.53;100.00;97347.38;5205650;28;20499;-71
2023/01/17 06:12:21;;;;;;;1.95;1.13;;;;;;;4.41;100.00;97364.50;5209459;28;20033;-72
2023/01/17 06:14:51;;;;;;;1.60;1.10;;;;;;;4.28;100.00;97362.78;5187644;28;20056;-72
2023/01/17 06:17:22;;;;;;;0.93;0.75;;;;;;;4.35;100.00;97384.72;5202745;28;20033;-72
2023/01/17 06:19:52;;;;;;;1.27;0.80;;;;;;;4.32;100.00;97385.72;5211076;28;20027;-72
2023/01/17 06:22:22;;;;;;;1.13;0.70;;;;;;;4.18;100.00;97392.66;5209333;28;20045;-72
2023/01/17 06:24:53;;;;;;;0.90;0.70;;;;;;;4.20;100.00;97416.66;5208699;28;20056;-72
2023/01/17 06:27:23;;;;;;;0.60;0.50;;;;;;;4.10;100.00;97426.72;5208334;28;20458;-72
2023/01/17 06:29:54;;;;;;;0.70;0.52;;;;;;;3.94;100.00;97428.56;5212137;28;20056;-72
2023/01/17 06:32:24;;;;;;;2.38;0.30;;;;;;;3.86;100.00;97423.03;5211560;28;20079;-72
2023/01/17 06:34:54;;;;;;;0.35;0.20;;;;;;;3.74;100.00;97434.06;5208400;28;20021;-72
2023/01/17 06:37:25;;;;;;;2.05;0.22;;;;;;;3.82;100.00;97437.03;5208267;28;20083;-72
2023/01/17 06:39:55;;;;;;;0.40;0.22;;;;;;;3.78;100.00;97448.47;5207414;28;20447;-71
2023/01/17 06:42:25;;;;;;;0.52;0.47;;;;;;;3.81;100.00;97450.84;5205472;28;20029;-72
2023/01/17 06:44:55;;;;;;;1.17;0.40;;;;;;;3.73;100.00;97463.41;5203327;28;20044;-72
2023/01/17 06:47:26;;;;;;;0.45;0.30;;;;;;;3.61;100.00;97453.75;5200869;28;20035;-72
2023/01/17 06:49:56;;;;;;;1.13;0.40;;;;;;;3.41;100.00;97467.91;5190463;28;20017;-72
2023/01/17 06:52:26;;;;;;;1.30;0.50;;;;;;;3.55;100.00;97479.09;5207032;28;20045;-72
2023/01/17 06:54:56;;;;;;;1.27;0.50;;;;;;;3.42;100.00;97492.78;5212521;28;20485;-72
2023/01/17 06:57:27;;;;;;;0.80;0.47;;;;;;;3.53;100.00;97491.25;5206538;28;20029;-72
2023/01/17 06:59:57;;;;;;;0.57;0.40;;;;;;;3.44;100.00;97494.38;5196149;28;20022;-72
2023/01/17 07:02:27;;;;;;;0.68;0.63;;;;;;;3.43;100.00;97500.47;5209578;28;20045;-72
2023/01/17 07:04:58;;;;;;;0.43;0.40;;;;;;;3.20;100.00;97512.97;5206494;28;20475;-72
2023/01/17 07:07:28;;;;;;;0.73;0.63;;;;;;;3.24;100.00;97519.63;5214273;28;20043;-72
2023/01/17 07:09:59;;;;;;;1.55;0.80;;;;;;;3.18;100.00;97527.72;5213891;28;20040;-73
2023/01/17 07:12:29;;;;;;;0.70;0.60;;;;;;;3.17;100.00;97534.59;5214190;28;20390;-72
2023/01/17 07:14:59;;;;;;;1.30;0.70;;;;;;;3.27;100.00;97540.09;5208428;28;20116;-72
2023/01/17 07:17:30;;;;;;;1.25;0.50;;;;;;;3.24;100.00;97529.94;5206948;28;20033;-73
2023/01/17 07:20:00;;;;;;;1.38;0.60;;;;;;;3.15;100.00;97535.59;5197615;28;20415;-71
2023/01/17 07:22:30;;;;;;;0.95;0.60;;;;;;;3.17;100.00;97544.09;5213468;28;20036;-72
2023/01/17 07:25:01;;;;;;;0.82;0.50;;;;;;;3.31;100.00;97552.75;5212262;28;20029;-72
2023/01/17 07:27:32;;;;;;;1.25;0.50;;;;;;;3.20;100.00;97559.41;5213975;28;20402;-72
2023/01/17 07:30:03;;;;;;;2.15;0.40;;;;;;;3.22;100.00;97573.06;5213446;28;20053;-73
2023/01/17 07:32:34;;;;;;;2.30;0.55;;;;;;;3.21;100.00;97561.88;5213150;28;20032;-72
2023/01/17 07:35:05;;;;;;;0.63;0.40;;;;;;;3.23;100.00;97554.88;5211986;28;20395;-72
2023/01/17 07:37:35;;;;;;;1.70;0.35;;;;;;;3.09;100.00;97572.03;5212004;28;20433;-72
2023/01/17 07:40:06;;;;;;;1.35;0.40;;;;;;;3.18;100.00;97581.88;5213910;28;20031;-72
2023/01/17 07:42:36;;;;;;;0.85;0.40;;;;;;;3.17;100.00;97580.22;5210282;28;20120;-72
2023/01/17 07:45:09;;;;;;;1.50;0.35;;;;;;;3.24;100.00;97586.69;5207821;28;20285;-72
2023/01/17 07:47:39;;;;;;;2.30;0.57;;;;;;;3.24;100.00;97582.38;5203618;28;20045;-73
2023/01/17 07:50:10;;;;;;;2.08;0.50;;;;;;;3.28;100.00;97583.03;5211402;28;20040;-72
2023/01/17 07:52:40;;;;;;;0.98;0.38;;;;;;;3.33;100.00;97586.22;5205785;28;20032;-73
2023/01/17 07:55:11;;;;;;;2.00;0.50;;;;;;;3.21;100.00;97589.44;5206269;28;20125;-73
2023/01/17 07:57:41;;;;;;;2.13;0.50;;;;;;;3.42;100.00;97596.84;5211706;28;20284;-73
2023/01/17 08:00:12;;;;;;;0.90;0.40;;;;;;;3.41;100.00;97594.34;5214544;28;20508;-72
2023/01/17 08:02:42;;;;;;;3.13;0.50;;;;;;;3.32;100.00;97600.00;5210441;28;20029;-73
2023/01/17 08:05:12;;;;;;;1.25;0.40;;;;;;;3.31;100.00;97598.34;5211522;28;20044;-73
2023/01/17 08:07:42;;;;;;;0.73;0.40;;;;;;;3.38;100.00;97607.44;5211986;28;20464;-72
2023/01/17 08:10:16;;;;;;;1.02;0.28;;;;;;;3.39;100.00;97612.47;5214519;28;20025;-73
2023/01/17 08:12:48;;;;;;;0.45;0.28;;;;;;;3.36;100.00;97611.84;5209298;28;20025;-73
2023/01/17 08:15:18;;;;;;;0.28;0.20;;;;;;;3.36;100.00;97627.31;5209679;28;20037;-73
2023/01/17 08:17:53;;;;;;;0.95;0.20;;;;;;;3.18;100.00;97633.47;5190388;28;20032;-73
2023/01/17 08:20:24;;;;;;;0.93;0.30;;;;;;;3.27;100.00;97638.13;5209917;28;20029;-73
2023/01/17 08:22:55;;;;;;;0.20;0.20;;;;;;;3.26;100.00;97642.47;5210243;28;20403;-72
2023/01/17 08:25:25;;;;;;;0.82;0.30;;;;;;;3.22;100.00;97646.09;5213157;28;20033;-73
2023/01/17 08:27:56;;;;;;;1.75;0.43;;;;;;;3.32;100.00;97649.88;5211023;28;20032;-73
2023/01/17 08:30:27;;;;;;;4.65;1.83;;;;;;;3.32;100.00;97649.03;5211122;28;20033;-72
2023/01/17 08:32:57;;;;;;;2.95;0.82;;;;;;;3.35;100.00;97656.63;5194256;28;20025;-72
2023/01/17 08:35:27;;;;;;;1.70;0.55;;;;;;;3.38;100.00;97656.44;5209470;28;20486;-73
2023/01/17 08:38:03;;;;;;;1.65;0.50;;;;;;;3.40;100.00;97665.75;5211275;28;20044;-73
2023/01/17 08:40:33;;;;;;;0.90;0.30;;;;;;;3.37;100.00;97665.94;5211557;28;20032;-73
2023/01/17 08:43:04;;;;;;;3.03;0.30;;;;;;;3.45;100.00;97671.53;5213085;28;20394;-72
2023/01/17 08:45:34;;;;;;;3.53;0.40;;;;;;;3.50;100.00;97671.28;5206523;28;20033;-72
2023/01/17 08:48:04;;;;;;;0.75;0.45;;;;;;;3.42;100.00;97679.44;5204830;28;20027;-73
2023/01/17 08:50:35;;;;;;;1.80;1.00;;;;;;;3.61;100.00;97685.28;5235847;22;20044;-75
2023/01/17 08:53:05;;;;;;;1.67;0.60;;;;;;;3.38;100.00;97682.25;5230645;28;20037;-73
2023/01/17 08:55:39;;;;;;;1.83;0.70;;;;;;;3.38;100.00;97684.84;5213522;28;20456;-76
2023/01/17 08:58:10;;;;;;;1.90;0.60;;;;;;;3.41;100.00;97688.09;5232466;28;20028;-74
2023/01/17 09:00:40;;;;;;;5.72;1.45;;;;;;;3.41;100.00;97700.16;5226888;28;20363;-74
2023/01/17 09:03:12;;;;;;;3.28;0.90;;;;;;;3.41;100.00;97703.59;5224188;28;20161;-71
2023/01/17 09:05:42;;;;;;;7.10;2.60;;;;;;;3.50;100.00;97710.00;5227850;28;20032;-74
2023/01/17 09:08:13;;;;;;;4.55;1.23;;;;;;;3.64;100.00;97709.16;5226994;28;20029;-74
2023/01/17 09:10:43;;;;;;;3.00;1.20;;;;;;;3.58;100.00;97717.25;5211344;28;20412;-75
2023/01/17 09:13:14;;;;;;;2.42;0.90;;;;;;;3.78;100.00;97714.41;5223575;28;20032;-74
2023/01/17 09:15:44;;;;;;;1.73;0.65;;;;;;;3.78;100.00;97718.75;5209935;28;20124;-74
2023/01/17 09:18:14;;;;;;;1.30;0.50;;;;;;;3.70;100.00;97715.75;5224483;28;20051;-74
2023/01/17 09:20:44;;;;;;;2.45;0.70;;;;;;;3.69;100.00;97712.34;5232429;28;20027;-74
2023/01/17 09:23:15;;;;;;;2.67;0.50;;;;;;;3.90;100.00;97718.91;5233267;28;20020;-74
2023/01/17 09:25:51;;;;;;;5.57;0.75;;;;;;;3.90;100.00;97718.91;5229818;28;20033;-74
2023/01/17 09:28:22;;;;;;;2.50;0.80;;;;;;;3.98;100.00;97724.47;5227990;28;20055;-74
2023/01/17 09:30:53;;;;;;;1.85;0.47;;;;;;;3.94;100.00;97723.00;5227910;28;20021;-74
2023/01/17 09:33:24;;;;;;;2.53;0.50;;;;;;;3.95;100.00;97729.00;5206689;28;20106;-76
2023/01/17 09:36:00;;;;;;;3.33;0.88;;;;;;;4.09;100.00;97739.41;5229660;28;20049;-75
2023/01/17 09:38:31;;;;;;;4.25;1.20;;;;;;;4.20;100.00;97721.56;5196256;28;20521;-74
2023/01/17 09:41:03;;;;;;;4.80;1.23;;;;;;;4.21;100.00;97724.06;5225343;28;20553;-75
2023/01/17 09:43:36;;;;;;;4.13;0.75;;;;;;;4.20;100.00;97732.72;5223705;28;20032;-74
2023/01/17 09:46:21;;;;;;;4.00;0.80;;;;;;;4.11;100.00;97729.84;5224212;28;20471;-75
2023/01/17 09:49:07;;;;;;;4.18;0.75;;;;;;;4.17;100.00;97738.06;5223945;28;20028;-75
2023/01/17 09:51:38;;;;;;;2.25;0.70;;;;;;;4.12;100.00;97744.41;5222343;28;20044;-75
2023/01/17 09:54:22;;;;;;;4.60;0.75;;;;;;;4.23;100.00;97742.91;5225815;28;20391;-75
2023/01/17 09:57:20;;;;;;;8.02;1.05;;;;;;;4.43;99.85;97744.38;5225284;28;20028;-75
2023/01/17 09:59:56;;;;;;;3.28;1.10;;;;;;;4.54;99.40;97752.34;5210504;28;20025;-75
2023/01/17 10:03:03;;;;;;;4.15;0.70;;;;;;;4.48;97.94;97743.16;5222091;28;20063;-74
2023/01/17 10:06:11;;;;;;;3.53;0.98;;;;;;;4.35;97.38;97747.38;5224565;28;20028;-74
2023/01/17 10:09:09;;;;;;;5.93;0.75;;;;;;;4.45;99.10;97751.09;5229420;28;20044;-72
2023/01/17 10:11:52;;;;;;;3.88;0.90;;;;;;;4.54;96.51;97748.00;5219197;28;20028;-74
2023/01/17 10:14:47;;;;;;;4.80;0.90;;;;;;;4.57;97.14;97747.84;5200991;28;20037;-74
2023/01/17 10:17:28;;;;;;;10.45;1.20;;;;;;;4.52;97.13;97743.84;5220561;28;20027;-75
2023/01/17 10:20:07;;;;;;;2.80;0.80;;;;;;;4.37;96.25;97750.72;5225782;28;20021;-73
2023/01/17 10:22:48;;;;;;;6.32;1.10;;;;;;;4.42;96.57;97748.69;5223995;28;20521;-75
2023/01/17 10:25:27;;;;;;;4.07;0.98;;;;;;;4.70;96.42;97758.31;5228882;28;20049;-74
2023/01/17 10:28:05;;;;;;;4.18;0.70;;;;;;;4.64;95.42;97756.09;5230875;28;20029;-75
2023/01/17 10:30:41;;;;;;;6.50;1.20;;;;;;;4.82;94.26;97753.25;5231811;28;20037;-75
2023/01/17 10:33:27;;;;;;;4.82;1.30;;;;;;;4.87;93.80;97748.66;5226611;28;20041;-74
2023/01/17 10:35:59;;;;;;;;;;;;;;;4.87;94.41;97763.34;5229580;28;20029;-74
2023/01/17 10:38:33;;;;;;;5.20;0.88;;;;;;;4.79;94.24;97763.78;5234138;28;20097;-74
2023/01/17 10:41:06;;;;;;;6.47;1.40;;;;;;;4.88;91.63;97762.41;5230893;28;20035;-74
2023/01/17 10:43:46;;;;;;;4.82;1.10;;;;;;;4.96;91.72;97749.88;5208502;28;20391;-74
2023/01/17 10:46:27;;;;;;;5.95;1.20;;;;;;;4.91;92.36;97764.81;5226085;28;20482;-74
2023/01/17 10:49:00;;;;;;;3.60;0.93;;;;;;;5.07;92.79;97760.44;5234283;28;20028;-74
2023/01/17 10:51:58;;;;;;;5.85;2.20;;;;;;;5.05;90.82;97763.13;5229130;28;20064;-73
2023/01/17 10:54:35;;;;;;;2.03;0.75;;;;;;;5.04;91.82;97776.97;5231530;28;20033;-75
2023/01/17 10:57:14;;;;;;;7.28;1.13;;;;;;;5.04;89.86;97768.38;5233924;28;20024;-74
2023/01/17 10:59:44;;;;;;;6.90;0.98;;;;;;;5.19;90.21;97776.06;5236149;28;20157;-74
2023/01/17 11:02:24;;;;;;;4.47;1.10;;;;;;;4.96;90.69;97773.19;5230940;28;20031;-74
2023/01/17 11:04:56;;;;;;;4.90;1.15;;;;;;;5.22;89.41;97773.31;5228085;28;20120;-74
2023/01/17 11:07:28;;;;;;;4.18;1.30;;;;;;;5.29;89.05;97769.44;5230899;28;20029;-75
2023/01/17 11:09:58;;;;;;;4.40;0.95;;;;;;;5.00;88.81;97772.88;5229296;28;20727;-75
2023/01/17 11:12:44;;;;;;;7.13;1.10;;;;;;;5.23;89.21;97771.53;5222732;28;20112;-75
2023/01/17 11:15:24;;;;;;;5.28;0.80;;;;;;;5.26;88.84;97759.25;5222455;28;20033;-75
2023/01/17 11:18:04;;;;;;;7.68;1.20;;;;;;;5.15;87.28;97774.59;5207897;28;20060;-75
2023/01/17 11:20:38;;;;;;;3.40;0.85;;;;;;;5.22;88.13;97764.69;5211033;28;20032;-74
2023/01/17 11:23:14;;;;;;;4.88;1.20;;;;;;;5.23;87.40;97754.28;5228147;28;20047;-75
2023/01/17 11:25:50;;;;;;;4.10;0.88;;;;;;;5.11;87.23;97762.75;5228640;28;20230;-75
2023/01/17 11:28:25;;;;;;;6.20;0.75;;;;;;;5.20;86.66;97767.41;5227081;28;20036;-75
2023/01/17 11:30:58;;;;;;;2.78;0.82;;;;;;;5.18;86.07;97771.00;5232103;28;20033;-75
2023/01/17 11:33:44;;;;;;;3.70;0.85;;;;;;;5.31;86.16;97761.59;5227654;28;20037;-75
2023/01/17 11:36:18;;;;;;;2.80;0.73;;;;;;;5.24;86.29;97768.88;5226604;28;20029;-74
2023/01/17 11:39:03;;;;;;;5.22;0.80;;;;;;;5.19;84.92;97765.72;5225305;28;20036;-72
2023/01/17 11:41:39;;;;;;;5.30;1.20;;;;;;;5.14;84.21;97769.50;5229949;28;20025;-75
2023/01/17 11:44:29;;;;;;;4.38;1.20;;;;;;;4.93;84.62;97776.75;5206381;28;20025;-75
2023/01/17 11:47:09;;;;;;;6.97;3.35;;;;;;;4.99;85.08;97773.81;5221308;28;20040;-75
2023/01/17 11:49:42;;;;;;;5.00;1.10;;;;;;;5.03;84.69;97780.50;5214195;28;20494;-75
2023/01/17 11:52:31;;;;;;;8.15;1.52;;;;;;;4.96;84.55;97779.16;5228349;28;20017;-74
2023/01/17 11:55:01;;;;;;;6.28;0.80;;;;;;;4.83;84.62;97778.19;5226915;28;20587;-75
2023/01/17 11:57:34;;;;;;;4.38;0.85;;;;;;;4.91;84.57;97783.78;5226138;28;20060;-75
2023/01/17 12:00:07;;;;;;;9.73;1.50;;;;;;;4.98;84.04;97779.91;5233038;28;20032;-75
2023/01/17 12:03:08;;;;;;;5.57;1.80;;;;;;;4.94;84.04;97786.19;5223801;28;20036;-74
2023/01/17 12:05:47;;;;;;;11.52;2.13;;;;;;;4.94;84.14;97788.78;5212276;28;20036;-74
2023/01/17 12:08:59;;;;;;;7.03;1.10;;;;;;;4.87;83.68;97791.81;5207056;28;20028;-75
2023/01/17 12:14:54;;;;;;;4.63;1.55;;;;;;;4.91;83.83;97796.72;5222774;28;20163;-74
2023/01/17 12:17:47;;;;;;;9.48;2.00;;;;;;;5.01;82.83;97789.25;5236472;28;20103;-74
2023/01/17 12:20:26;;;;;;;8.23;2.42;;;;;;;5.00;82.20;97797.94;5214394;28;20513;-75
2023/01/17 12:23:07;;;;;;;6.90;2.50;;;;;;;4.80;81.72;97793.91;5224033;28;20052;-75
2023/01/17 12:25:53;;;;;;;6.10;1.73;;;;;;;4.90;81.54;97795.06;5224386;28;20492;-75
2023/01/17 12:29:00;;;;;;;13.00;3.22;;;;;;;5.09;82.48;97787.88;5225167;28;20033;-75
2023/01/17 12:32:02;;;;;;;8.13;1.75;;;;;;;5.07;81.26;97783.72;5230918;28;20025;-75
2023/01/17 12:34:39;;;;;;;13.52;3.33;;;;;;;5.15;81.86;97787.53;5202686;28;20684;-75
2023/01/17 12:37:17;;;;;;;5.72;1.80;;;;;;;5.23;81.60;97792.25;5223473;28;20032;-73
2023/01/17 12:39:55;;;;;;;4.28;0.90;;;;;;;5.20;80.98;97798.47;5230593;28;20059;-74
2023/01/17 12:42:33;;;;;;;2.45;0.75;;;;;;;5.18;80.63;97800.28;5209295;28;20734;-75
2023/01/17 12:45:08;;;;;;;6.18;1.00;;;;;;;5.19;81.57;97791.59;5224641;28;20410;-75
2023/01/17 12:47:44;;;;;;;3.70;1.00;;;;;;;5.30;80.90;97794.38;5229277;28;20043;-75
2023/01/17 12:50:43;;;;;;;4.68;1.30;;;;;;;5.32;81.29;97787.34;5210742;28;20540;-74
2023/01/17 12:53:42;;;;;;;8.63;1.02;;;;;;;5.28;80.88;97808.34;5225946;28;20037;-75
2023/01/17 12:56:27;;;;;;;4.90;1.27;;;;;;;5.44;81.10;97794.41;5225863;28;20035;-75
2023/01/17 12:59:28;;;;;;;3.83;1.05;;;;;;;5.39;80.56;97809.41;5224895;28;20033;-75
2023/01/17 13:02:06;;;;;;;5.15;0.98;;;;;;;5.39;81.00;97804.22;5226463;28;20021;-75
2023/01/17 13:04:50;;;;;;;4.70;1.02;;;;;;;5.15;80.34;97807.41;5224230;28;20021;-74
2023/01/17 13:07:33;;;;;;;4.15;0.80;;;;;;;5.15;80.52;97803.03;5219421;28;20025;-74
2023/01/17 13:10:21;;;;;;;5.30;1.48;;;;;;;5.08;80.53;97808.66;5232087;28;20064;-75
2023/01/17 13:12:55;;;;;;;6.32;0.98;;;;;;;4.95;80.66;97816.31;5223751;28;20163;-74
2023/01/17 13:15:36;;;;;;;5.63;1.30;;;;;;;4.82;80.47;97820.50;5225858;28;20071;-74
2023/01/17 13:18:16;;;;;;;4.97;1.00;;;;;;;4.91;80.90;97821.75;5230243;28;20024;-75
2023/01/17 13:21:14;;;;;;;7.95;0.98;;;;;;;4.82;80.81;97832.63;5232156;28;20026;-75
2023/01/17 13:24:02;;;;;;;7.70;1.33;;;;;;;4.67;81.17;97836.88;5225094;28;20108;-75
2023/01/17 13:26:54;;;;;;;6.45;1.13;;;;;;;4.81;80.74;97839.53;5222770;28;20565;-74
2023/01/17 13:29:53;;;;;;;4.45;0.77;;;;;;;4.82;80.66;97851.53;5226082;28;20556;-75
2023/01/17 13:32:35;;;;;;;6.32;1.52;;;;;;;4.81;78.51;97857.63;5219301;28;20032;-74
2023/01/17 13:35:24;;;;;;;9.18;2.40;;;;;;;4.81;79.92;97854.25;5212542;28;20558;-74
2023/01/17 13:38:09;;;;;;;8.20;2.10;;;;;;;5.01;79.84;97866.88;5229529;28;20039;-74
2023/01/17 13:40:54;;;;;;;6.30;1.80;;;;;;;4.92;79.46;97872.56;5231077;28;20024;-75